• Join FlightAware (Why Join?)
  • Login
  • US Flag 
07:26AM EDT


 

Airport Tracker/Info


-or-


 

Live Flight TrackerFlight Track Log ✈ SWA868 ✈ 25-Apr-2013 ✈ KTPA - KMHT

Flight Track Log - Related Links

Times and Time Zones

All times are in EDT time to prevent confusion due to time zone crossing. See the SWA868 flight status page for this flight to view local times or setup timezone preferences in your user account.

Time Position Orientation Groundspeed Altitude Reporting Facility
EDT Latitude Longitude Course Direction KTS MPH feet Rate Location/Type
09:11PM 28.0000 -82.5333 360° North 139 160 800  Level Tampa TRACON
09:12PM 28.0167 -82.5333 360° North 154 177 1,600 2,040 Climbing Tampa TRACON
09:13PM 28.0667 -82.5333 360° North 223 257 3,900 3,060 Climbing Tampa TRACON
09:14PM 28.1808 -82.5489 353° North 299 344 9,500 3,060 Climbing Jacksonville Center
09:15PM 28.2664 -82.5625 352° North 293 337 11,900 2,820 Climbing Jacksonville Center
09:16PM 28.3667 -82.5836 350° North 317 365 15,300 2,880 Climbing Jacksonville Center
09:17PM 28.4689 -82.5856 359° North 344 396 17,700 2,340 Climbing Jacksonville Center
09:18PM 28.5817 -82.5875 359° North 369 425 20,000 2,160 Climbing Jacksonville Center
09:19PM 28.6733 -82.5897 359° North 392 451 22,100 2,580 Climbing Jacksonville Center
09:20PM 28.7986 -82.6083 353° North 402 463 25,200 2,460 Climbing Jacksonville Center
09:21PM 28.9156 -82.6222 354° North 409 471 27,100 1,920 Climbing Jacksonville Center
09:22PM 29.0344 -82.6408 352° North 419 482 29,100 2,100 Climbing Jacksonville Center
09:23PM 29.1556 -82.6572 353° North 426 490 31,300 2,160 Climbing Jacksonville Center
09:24PM 29.2725 -82.6736 353° North 426 490 33,500 1,320 Climbing Jacksonville Center
09:25PM 29.3875 -82.6875 354° North 421 484 34,000 240 Climbing Jacksonville Center
09:26PM 29.5189 -82.6944 357° North 421 484 34,000 300 Level Jacksonville Center
09:27PM 29.6381 -82.6942 360° North 427 491 34,700 1,200 Climbing Jacksonville Center
09:28PM 29.7569 -82.6939 360° North 416 479 36,400 1,560 Climbing Jacksonville Center
09:29PM 29.8697 -82.6939 360° North 410 472 37,800 1,260 Climbing Jacksonville Center
09:30PM 29.9825 -82.6911 North 400 460 39,000 540 Climbing Jacksonville Center
09:31PM 30.0972 -82.6861 North 400 460 39,000  Level Jacksonville Center
09:32PM 30.2078 -82.6858 360° North 400 460 39,000  Level Jacksonville Center
09:33PM 30.3186 -82.6856 360° North 400 460 39,000  Level Jacksonville Center
09:34PM 30.4292 -82.6853 360° North 400 460 39,000  Level Jacksonville Center
09:35PM 30.5439 -82.6683 North 400 460 39,000  Level Jacksonville Center
09:36PM 30.6544 -82.6172 22° Northeast 412 474 39,000  Level Jacksonville Center
09:37PM 30.7650 -82.5639 23° Northeast 417 480 39,000  Level Jacksonville Center
09:38PM 30.8756 -82.5103 23° Northeast 423 487 39,000  Level Jacksonville Center
09:39PM 30.9881 -82.4517 24° Northeast 433 498 39,000  Level Jacksonville Center
09:40PM 31.0778 -82.4097 22° Northeast 433 498 39,000  Level Jacksonville Center
09:41PM 31.1967 -82.3511 23° Northeast 428 493 39,000  Level Jacksonville Center
09:42PM 31.3092 -82.2992 22° Northeast 428 493 39,000  Level Jacksonville Center
09:43PM 31.4175 -82.2475 22° Northeast 428 493 39,000  Level Jacksonville Center
09:44PM 31.5258 -82.1906 24° Northeast 428 493 39,000  Level Jacksonville Center
09:45PM 31.6339 -82.1361 23° Northeast 428 493 39,000  Level Jacksonville Center
09:46PM 31.7567 -82.0764 22° Northeast 423 487 39,000  Level Jacksonville Center
09:47PM 31.8692 -82.0217 22° Northeast 423 487 39,000  Level Jacksonville Center
09:48PM 31.9669 -81.9717 23° Northeast 423 487 39,000  Level Jacksonville Center
09:49PM 32.0875 -81.9142 22° Northeast 423 487 39,000  Level Jacksonville Center
09:50PM 32.1875 -81.8689 21° North 423 487 39,000  Level Jacksonville Center
09:51PM 32.3081 -81.8111 22° Northeast 423 487 39,000  Level Jacksonville Center
09:52PM 32.4183 -81.7581 22° Northeast 428 493 39,000  Level Jacksonville Center
09:53PM 32.5181 -81.7125 21° North 428 493 39,000  Level Jacksonville Center
09:54PM 32.6386 -81.6517 23° Northeast 428 493 39,000  Level Jacksonville Center
09:55PM 32.7383 -81.6033 22° Northeast 428 493 39,000  Level Jacksonville Center
09:56PM 32.8483 -81.5500 22° Northeast 428 493 39,000  Level Jacksonville Center
09:57PM 32.9583 -81.4986 21° North 428 493 39,000  Level Jacksonville Center
09:58PM 33.0683 -81.4475 21° North 428 493 39,000  Level Jacksonville Center
09:59PM 33.1783 -81.3911 23° Northeast 428 493 39,000  Level Jacksonville Center
10:00PM 33.2883 -81.3369 22° Northeast 428 493 39,000  Level Jacksonville Center
10:01PM 33.3983 -81.2828 22° Northeast 433 498 39,000  Level Jacksonville Center
10:02PM 33.5083 -81.2286 22° Northeast 433 498 39,000  Level Jacksonville Center
10:03PM 33.6244 -81.1739 21° North 433 498 39,000  Level Jacksonville Center
10:04PM 33.7364 -81.1169 23° Northeast 433 498 39,000  Level Jacksonville Center
10:05PM 33.8583 -81.0469 25° Northeast 433 498 39,000  Level Jacksonville Center
10:06PM 33.9489 -80.9600 39° Northeast 441 507 39,000  Level Jacksonville Center
10:07PM 34.0472 -80.8500 43° Northeast 461 531 39,000  Level Jacksonville Center
10:08PM 34.1436 -80.7472 41° Northeast 466 536 39,000  Level Jacksonville Center
10:09PM 34.2439 -80.6344 43° Northeast 471 542 39,000  Level Jacksonville Center
10:10PM 34.3400 -80.5261 43° Northeast 471 542 39,000  Level Jacksonville Center
10:11PM 34.4381 -80.4203 42° Northeast 471 542 39,000  Level Jacksonville Center
10:12PM 34.5381 -80.3092 42° Northeast 476 548 39,000  Level Jacksonville Center
10:14PM 34.7428 -80.0758 43° Northeast 471 542 39,000  Level Washington Center
10:15PM 34.8431 -79.9647 42° Northeast 482 555 39,000  Level Washington Center
10:16PM 34.9408 -79.8536 43° Northeast 482 555 39,000  Level Washington Center
10:17PM 35.0408 -79.7447 42° Northeast 482 555 39,000  Level Washington Center
10:18PM 35.1383 -79.6328 43° Northeast 487 560 39,000  Level Washington Center
10:19PM 35.2361 -79.5208 43° Northeast 482 555 39,000  Level Washington Center
10:20PM 35.3358 -79.4061 43° Northeast 482 555 39,000  Level Washington Center
10:21PM 35.4267 -79.3058 42° Northeast 482 555 39,000  Level Washington Center
10:22PM 35.5239 -79.1931 43° Northeast 482 555 39,000  Level Washington Center
10:23PM 35.6317 -79.0753 42° Northeast 482 555 39,000  Level Washington Center
10:24PM 35.7389 -78.9800 36° Northeast 477 549 39,000  Level Washington Center
10:25PM 35.8458 -78.8822 37° Northeast 477 549 39,000  Level Washington Center
10:26PM 35.9506 -78.7889 36° Northeast 467 537 39,000  Level Washington Center
10:27PM 36.0553 -78.6931 36° Northeast 467 537 39,000  Level Washington Center
10:28PM 36.1622 -78.5944 37° Northeast 467 537 39,000  Level Washington Center
10:29PM 36.2542 -78.5053 38° Northeast 467 537 39,000  Level Washington Center
10:30PM 36.3650 -78.4086 35° Northeast 472 543 39,000  Level Washington Center
10:31PM 36.4717 -78.3067 38° Northeast 472 543 39,000  Level Washington Center
10:32PM 36.5783 -78.2069 37° Northeast 472 543 39,000  Level Washington Center
10:33PM 36.6953 -78.0969 37° Northeast 472 543 39,000  Level Washington Center
10:34PM 36.7997 -77.9964 38° Northeast 472 543 39,000  Level Washington Center
10:35PM 36.8972 -77.9058 37° Northeast 472 543 39,000  Level Washington Center
10:36PM 37.0058 -77.8025 37° Northeast 472 543 39,000  Level Washington Center
10:37PM 37.1097 -77.7039 37° Northeast 472 543 39,000  Level Washington Center
10:38PM 37.2158 -77.6025 37° Northeast 472 543 39,000  Level Washington Center
10:39PM 37.3239 -77.5008 37° Northeast 472 543 39,000  Level Washington Center
10:40PM 37.4297 -77.3989 37° Northeast 472 543 39,000  Level Washington Center
10:41PM 37.5458 -77.2892 37° Northeast 467 537 39,000  Level Washington Center
10:42PM 37.6539 -77.1839 38° Northeast 467 537 39,000  Level Washington Center
10:43PM 37.7614 -77.0811 37° Northeast 472 543 39,000  Level Washington Center
10:44PM 37.8669 -76.9753 38° Northeast 472 543 39,000  Level Washington Center
10:45PM 37.9744 -76.8719 37° Northeast 477 549 39,000  Level Washington Center
10:46PM 38.0819 -76.7631 39° Northeast 477 549 39,000  Level Washington Center
10:47PM 38.1914 -76.6592 37° Northeast 482 555 39,000  Level Washington Center
10:48PM 38.2986 -76.5494 39° Northeast 487 560 39,000  Level Washington Center
10:49PM 38.3953 -76.4581 37° Northeast 487 560 39,000  Level Washington Center
10:50PM 38.5022 -76.3478 39° Northeast 492 566 39,000  Level Washington Center
10:51PM 38.6072 -76.2425 38° Northeast 492 566 39,000  Level Washington Center
10:52PM 38.7286 -76.1239 37° Northeast 498 573 39,000  Level Washington Center
10:53PM 38.8375 -76.0153 38° Northeast 498 573 39,000  Level Washington Center
10:54PM 38.9442 -75.9092 38° Northeast 493 567 39,000  Level Washington Center
10:55PM 39.0528 -75.7975 39° Northeast 493 567 39,000  Level Washington Center
10:56PM 39.1383 -75.7119 38° Northeast 493 567 39,000  Level Washington Center
10:57PM 39.2675 -75.5808 38° Northeast 493 567 39,000  Level Washington Center
10:58PM 39.3717 -75.4708 39° Northeast 493 567 39,000  Level Washington Center
10:59PM 39.4675 -75.3739 38° Northeast 493 567 39,000  Level Washington Center
11:00PM 39.5736 -75.2631 39° Northeast 493 567 39,000  Level Washington Center
11:01PM 39.6794 -75.1575 37° Northeast 493 567 39,000  Level Washington Center
11:02PM 39.7667 -75.0594 41° Northeast 496 571 39,000  Level New York Center
11:03PM 39.8728 -74.9497 38° Northeast 496 571 39,000  Level New York Center
11:04PM 39.9753 -74.8233 43° Northeast 490 564 39,000  Level New York Center
11:05PM 40.0758 -74.6800 47° Northeast 490 564 39,000  Level New York Center
11:06PM 40.1678 -74.5492 47° Northeast 490 564 39,000  Level New York Center
11:07PM 40.2675 -74.4269 43° Northeast 485 558 39,000  Level New York Center
11:08PM 40.3708 -74.3150 40° Northeast 479 551 39,000  Level New York Center
11:09PM 40.4764 -74.2006 39° Northeast 479 551 39,000  Level New York Center
11:11PM 40.6597 -74.0106 38° Northeast 503 579 39,000  Level Boston Center
11:12PM 40.7675 -73.8953 39° Northeast 503 579 39,000  Level Boston Center
11:13PM 40.8872 -73.8156 27° Northeast 491 565 39,000  Level Boston Center
11:14PM 41.0172 -73.7578 19° North 486 559 39,000 -120 Level Boston Center
11:15PM 41.1506 -73.7578 360° North 470 541 38,800 -1,080 Descending Boston Center
11:16PM 41.2819 -73.7578 360° North 470 541 36,900 -1,980 Descending Boston Center
11:17PM 41.4111 -73.7631 358° North 465 535 34,900 -2,040 Descending Boston Center
11:18PM 41.5444 -73.7658 359° North 465 535 32,900 -1,740 Descending Boston Center
11:19PM 41.6800 -73.7492 North 472 543 31,500 -1,200 Descending Boston Center
11:20PM 41.7878 -73.6317 39° Northeast 471 542 30,600 -960 Descending Boston Center
11:21PM 41.8889 -73.4969 45° Northeast 485 558 29,600 -840 Descending Boston Center
11:22PM 41.9922 -73.3647 44° Northeast 497 572 29,000 -300 Descending Boston Center
11:23PM 42.0911 -73.2347 44° Northeast 497 572 29,000 -60 Level Boston Center
11:24PM 42.1922 -73.1014 44° Northeast 502 578 28,900 -1,740 Descending Boston Center
11:25PM 42.2908 -72.9706 44° Northeast 496 571 25,600 -3,300 Descending Boston Center
11:26PM 42.3978 -72.8225 46° Northeast 491 565 22,400 -3,060 Descending Boston Center
11:27PM 42.4856 -72.7019 45° Northeast 468 539 19,500 -2,400 Descending Boston Center
11:28PM 42.5669 -72.6008 42° Northeast 450 518 17,200 -2,220 Descending Boston Center
11:29PM 42.6672 -72.4683 44° Northeast 428 493 14,700 -2,340 Descending Boston Center
11:30PM 42.7422 -72.3667 45° Northeast 396 456 12,600 -2,220 Descending Boston Center
11:31PM 42.7919 -72.2533 59° Northeast 361 415 10,300 -1,500 Descending Boston Center
11:32PM 42.8042 -72.1289 82° East 311 358 9,700 -900 Descending Boston Center
11:33PM 42.8144 -72.0297 82° East 297 342 8,600 -1,500 Descending Boston Center
11:34PM 42.8244 -71.9108 83° East 284 327 6,700 -1,620 Descending Boston Center
11:35PM 42.8322 -71.8200 83° East 284 327 5,400 -1,620 Descending Boston Center
11:36PM 42.8400 -71.7094 84° East 269 310 3,500 -1,560 Descending Boston Center
11:37PM 42.8497 -71.6217 81° East 269 310 2,300 -720 Descending Boston Center
11:38PM 42.8656 -71.5308 77° East 233 268 2,100 -600 Descending Boston Center
11:39PM 42.8903 -71.4964 46° Northeast 158 182 1,200 -840 Descending Boston Center
11:40PM 42.9194 -71.4619 41° Northeast 121 139 500 -420 Descending Boston Center
11:41PM 42.9419 -71.4333 43° Northeast 121 139 400 4,200 Descending Boston Center
11:42PM 42.9689 -71.4044 38° Northeast 121 139 9,000 4,260 Climbing Boston Center
11:43PM 42.9936 -71.3756 41° Northeast 121 139 9,000  Level Boston Center
11:44PM 43.0203 -71.3467 38° Northeast 121 139 9,000  Level Boston Center
11:45PM 43.0244 -71.3411 44° Northeast 121 139 9,000  Level Boston Center
11:46PM 43.0244 -71.3411 350° North 121 139 9,000  Level Boston Center
11:48PM 42.9328 -71.4358 216° Southwest  Level Estimated
11:55PM 42.9328 -71.4358 216° Southwest  Level Estimated
11:56PM 42.9328 -71.4358 216° Southwest  Level Estimated
11:57PM 42.9328 -71.4358 216° Southwest  Level Estimated
11:58PM 42.9328 -71.4358 216° Southwest  Level Estimated
11:59PM 42.9328 -71.4358 216° Southwest  Level Estimated